Terminal Aerodrome Forecast
Issued by NWS Grand Forks, ND

Home | Current Version | Previous Version | Graphics & Text | Print | Product List | Glossary On
Versions: 1 2 3 4 5 6 7 8 9 10 11 12 13 14 15 16 17 18 19 20 21 22
747
FTUS43 KFGF 241902 AAA
TAFFAR
TAF AMD
KFAR 241902Z 2419/2518 36013KT P6SM OVC090
      TEMPO 2419/2421 -RA
     FM242100 VRB03KT P6SM OVC070
     FM242300 32012KT P6SM OVC015
     FM250600 32012KT P6SM OVC003=

USA.gov is the U.S. government's official web portal to all federal, state and local government web resources and services.